Time;durP1;ratioP1;P1;durP2;ratioP2;P2;SDS_P1;SDS_P2;PMS_P1;PMS_P2;Temp;Humidity;BMP_temperature;BMP_pressure;BME280_temperature;BME280_humidity;BME280_pressure;Samples;Min_cycle;Max_cycle;Signal;HPM_P1;HPM_P2
2024/01/29 00:01:47;;;;;;;7.30;3.15;;;-2.70;99.90;;;;;;5075314;28;20478;-76
2024/01/29 00:04:13;;;;;;;6.72;2.88;;;-2.70;99.90;;;;;;5074517;28;20063;-76
2024/01/29 00:06:39;;;;;;;6.55;3.05;;;-2.70;99.90;;;;;;5056863;28;20094;-76
2024/01/29 00:09:05;;;;;;;9.40;3.08;;;-2.70;99.90;;;;;;5057189;28;20432;-75
2024/01/29 00:11:33;;;;;;;7.38;3.70;;;-2.80;99.90;;;;;;5074662;28;20091;-75
2024/01/29 00:13:58;;;;;;;9.10;3.60;;;-2.90;99.90;;;;;;5074605;28;20043;-75
2024/01/29 00:16:24;;;;;;;7.25;2.75;;;-2.90;99.90;;;;;;5056353;28;20024;-75
2024/01/29 00:18:50;;;;;;;6.13;2.42;;;-2.90;99.90;;;;;;5074298;28;20443;-75
2024/01/29 00:21:16;;;;;;;5.30;2.58;;;-3.00;99.90;;;;;;5074465;28;20027;-75
2024/01/29 00:23:42;;;;;;;5.13;2.58;;;-3.00;99.90;;;;;;5074586;28;20386;-75
2024/01/29 00:26:07;;;;;;;6.43;2.92;;;-2.90;99.90;;;;;;5075066;28;20097;-77
2024/01/29 00:28:33;;;;;;;5.18;2.03;;;-2.90;99.90;;;;;;5074678;28;20024;-76
2024/01/29 00:30:59;;;;;;;5.15;2.63;;;-2.80;99.90;;;;;;5074207;28;20082;-76
2024/01/29 00:33:25;;;;;;;5.40;2.30;;;-2.80;99.90;;;;;;5074106;28;20027;-75
2024/01/29 00:35:50;;;;;;;6.00;2.45;;;-2.80;99.90;;;;;;5073885;28;20028;-77
2024/01/29 00:38:16;;;;;;;4.78;2.03;;;-2.80;99.90;;;;;;5074056;28;20127;-77
2024/01/29 00:40:42;;;;;;;3.72;2.03;;;-2.90;99.90;;;;;;5056100;28;20040;-77
2024/01/29 00:43:07;;;;;;;5.90;2.38;;;-2.90;99.90;;;;;;5039594;28;20040;-77
2024/01/29 00:45:33;;;;;;;6.70;2.85;;;-2.90;99.90;;;;;;5073768;28;20029;-76
2024/01/29 00:47:59;;;;;;;4.55;2.47;;;-2.90;99.90;;;;;;5055994;28;20032;-75
2024/01/29 00:50:24;;;;;;;7.05;2.72;;;-2.80;99.90;;;;;;5073658;28;20047;-73
2024/01/29 00:52:50;;;;;;;5.18;2.70;;;-2.80;99.90;;;;;;5074000;28;20111;-74
2024/01/29 00:55:16;;;;;;;5.25;2.17;;;-2.90;99.90;;;;;;5073631;28;20074;-74
2024/01/29 00:57:41;;;;;;;6.53;2.90;;;-2.90;99.90;;;;;;5073666;28;20097;-74
2024/01/29 01:00:08;;;;;;;12.43;4.90;;;-2.90;99.90;;;;;;5073681;28;20123;-75
2024/01/29 01:02:35;;;;;;;11.00;5.68;;;-2.90;99.90;;;;;;5055563;28;20421;-74
2024/01/29 01:05:00;;;;;;;8.70;3.92;;;-2.90;99.90;;;;;;5073251;28;20032;-76
2024/01/29 01:07:26;;;;;;;7.97;3.22;;;-3.00;99.90;;;;;;5055703;28;20028;-75
2024/01/29 01:09:52;;;;;;;7.03;3.00;;;-3.00;99.90;;;;;;5073495;28;20017;-75
2024/01/29 01:12:18;;;;;;;7.63;2.72;;;-3.00;99.90;;;;;;5073492;28;20130;-75
2024/01/29 01:14:43;;;;;;;5.30;2.28;;;-3.00;99.90;;;;;;5055711;28;20029;-75
2024/01/29 01:17:09;;;;;;;7.15;2.83;;;-3.00;99.90;;;;;;5073389;28;20029;-75
2024/01/29 01:19:35;;;;;;;5.13;2.08;;;-2.90;99.90;;;;;;5073193;28;20028;-76
2024/01/29 01:22:00;;;;;;;4.90;2.28;;;-2.90;99.90;;;;;;5055504;28;20047;-75
2024/01/29 01:24:26;;;;;;;5.47;2.10;;;-2.90;99.90;;;;;;5073269;28;20043;-75
2024/01/29 01:26:52;;;;;;;5.93;2.30;;;-2.90;99.90;;;;;;5054832;28;20028;-76
2024/01/29 01:29:18;;;;;;;4.32;2.08;;;-2.90;99.90;;;;;;5073316;28;20114;-75
2024/01/29 01:31:44;;;;;;;4.47;1.90;;;-2.90;99.90;;;;;;5073263;28;20084;-75
2024/01/29 01:34:10;;;;;;;5.70;2.30;;;-2.90;99.90;;;;;;5072938;28;20409;-75
2024/01/29 01:36:35;;;;;;;5.22;2.17;;;-3.00;99.90;;;;;;5055364;28;20437;-75
2024/01/29 01:39:01;;;;;;;3.90;2.13;;;-3.00;99.90;;;;;;5073492;28;20074;-75
2024/01/29 01:41:26;;;;;;;3.42;1.95;;;-2.90;99.90;;;;;;5073477;28;20021;-75
2024/01/29 01:43:52;;;;;;;4.32;1.92;;;-2.90;99.90;;;;;;5073170;28;20029;-75
2024/01/29 01:46:21;;;;;;;4.65;1.90;;;-3.00;99.90;;;;;;5072963;28;20032;-75
2024/01/29 01:48:47;;;;;;;4.45;2.25;;;-3.00;99.90;;;;;;5072853;28;20051;-77
2024/01/29 01:51:13;;;;;;;5.75;2.50;;;-3.00;99.90;;;;;;5073068;28;20033;-75
2024/01/29 01:53:39;;;;;;;6.25;3.28;;;-3.00;99.90;;;;;;5072943;28;20033;-74
2024/01/29 01:56:06;;;;;;;3.65;2.03;;;-3.10;99.90;;;;;;5073300;28;20036;-75
2024/01/29 01:58:35;;;;;;;6.40;2.70;;;-3.10;99.90;;;;;;5073044;28;20028;-76
2024/01/29 02:01:01;;;;;;;4.30;2.25;;;-3.20;99.90;;;;;;5073232;28;20024;-75
2024/01/29 02:03:28;;;;;;;5.38;2.65;;;-3.10;99.90;;;;;;5055024;28;20033;-76
2024/01/29 02:05:54;;;;;;;4.18;1.98;;;-3.20;99.90;;;;;;5076333;22;20168;-78
2024/01/29 02:08:21;;;;;;;2.90;1.90;;;-3.20;99.90;;;;;;4973944;28;20034;-78
2024/01/29 02:10:48;;;;;;;4.90;2.35;;;-3.20;99.90;;;;;;4973881;28;20027;-78
2024/01/29 02:13:14;;;;;;;3.38;1.88;;;-3.20;99.90;;;;;;4973969;28;20080;-78
2024/01/29 02:15:40;;;;;;;5.15;2.50;;;-3.20;99.90;;;;;;4991145;28;20114;-78
2024/01/29 02:18:06;;;;;;;4.10;2.40;;;-3.20;99.90;;;;;;4973777;28;20031;-78
2024/01/29 02:20:33;;;;;;;5.65;2.40;;;-3.20;99.90;;;;;;4973700;28;20031;-78
2024/01/29 02:22:59;;;;;;;3.30;2.05;;;-3.20;99.90;;;;;;4973928;28;20034;-78
2024/01/29 02:25:24;;;;;;;6.13;2.25;;;-3.20;99.90;;;;;;4990895;28;20037;-78
2024/01/29 02:27:50;;;;;;;6.03;2.33;;;-3.20;99.90;;;;;;4973771;28;20050;-78
2024/01/29 02:30:16;;;;;;;5.15;2.50;;;-3.20;99.90;;;;;;4973746;28;20096;-78
2024/01/29 02:32:41;;;;;;;2.88;1.50;;;-3.20;99.90;;;;;;4973674;28;20041;-78
2024/01/29 02:35:07;;;;;;;3.75;1.83;;;-3.20;99.90;;;;;;4973684;28;20034;-78
2024/01/29 02:37:34;;;;;;;3.97;1.77;;;-3.20;99.90;;;;;;4973526;28;20440;-78
2024/01/29 02:40:00;;;;;;;3.92;2.28;;;-3.30;99.90;;;;;;4976759;28;20510;-78
2024/01/29 02:42:26;;;;;;;6.63;2.20;;;-3.30;99.90;;;;;;4945206;28;20038;-78
2024/01/29 02:44:51;;;;;;;7.82;2.20;;;-3.30;99.90;;;;;;4960647;28;20026;-79
2024/01/29 02:47:17;;;;;;;4.80;2.67;;;-3.30;99.90;;;;;;4994187;28;20050;-78
2024/01/29 02:49:46;;;;;;;3.53;2.03;;;-3.30;99.90;;;;;;4976933;28;20053;-78
2024/01/29 02:52:12;;;;;;;3.50;2.15;;;-3.30;99.90;;;;;;4994239;28;20081;-78
2024/01/29 02:54:37;;;;;;;3.20;1.88;;;-3.40;99.90;;;;;;4994141;28;20027;-78
2024/01/29 02:57:04;;;;;;;4.22;1.88;;;-3.50;99.90;;;;;;4976730;28;20556;-78
2024/01/29 02:59:30;;;;;;;3.97;1.95;;;-3.60;99.90;;;;;;4976721;28;20043;-78
2024/01/29 03:01:56;;;;;;;3.22;1.70;;;-3.60;99.90;;;;;;4960588;28;20034;-78
2024/01/29 03:04:22;;;;;;;3.55;1.60;;;-3.60;99.90;;;;;;4976666;28;20033;-78
2024/01/29 03:06:47;;;;;;;3.45;1.67;;;-3.60;99.90;;;;;;4976588;28;20415;-78
2024/01/29 03:09:14;;;;;;;3.05;1.80;;;-3.50;99.90;;;;;;4993810;28;20101;-78
2024/01/29 03:11:40;;;;;;;3.22;1.42;;;-3.50;99.90;;;;;;4994017;28;20038;-78
2024/01/29 03:14:06;;;;;;;3.67;1.73;;;-3.60;99.90;;;;;;4960491;28;20037;-78
2024/01/29 03:16:32;;;;;;;3.83;1.90;;;-3.50;99.90;;;;;;4993636;28;20027;-78
2024/01/29 03:18:58;;;;;;;4.97;1.80;;;-3.50;99.90;;;;;;4960272;28;20022;-78
2024/01/29 03:21:23;;;;;;;3.65;2.03;;;-3.50;99.90;;;;;;4993863;28;20038;-78
2024/01/29 03:23:49;;;;;;;5.47;2.10;;;-3.50;99.90;;;;;;4976217;28;20033;-78
2024/01/29 03:26:14;;;;;;;3.83;1.98;;;-3.50;99.90;;;;;;4976105;28;20030;-78
2024/01/29 03:28:40;;;;;;;4.38;2.05;;;-3.50;99.90;;;;;;4960222;28;20031;-78
2024/01/29 03:31:06;;;;;;;4.07;2.05;;;-3.60;99.90;;;;;;4976082;28;20031;-78
2024/01/29 03:33:32;;;;;;;3.65;1.85;;;-3.60;99.90;;;;;;4960188;28;20132;-78
2024/01/29 03:35:57;;;;;;;3.72;2.25;;;-3.70;99.90;;;;;;4960506;28;20046;-78
2024/01/29 03:38:23;;;;;;;4.25;2.05;;;-3.70;99.90;;;;;;4994110;28;20031;-78
2024/01/29 03:40:49;;;;;;;4.03;1.77;;;-3.70;99.90;;;;;;4975973;28;20125;-78
2024/01/29 03:43:15;;;;;;;3.95;2.00;;;-3.70;99.90;;;;;;4976022;28;20030;-78
2024/01/29 03:45:40;;;;;;;3.20;1.80;;;-3.70;99.90;;;;;;4975807;28;20411;-78
2024/01/29 03:48:06;;;;;;;3.83;1.70;;;-3.60;99.90;;;;;;4976005;28;20037;-78
2024/01/29 03:50:32;;;;;;;4.35;2.03;;;-3.60;99.90;;;;;;4975547;28;20026;-78
2024/01/29 03:52:57;;;;;;;3.53;1.77;;;-3.70;99.90;;;;;;4975852;28;20041;-78
2024/01/29 03:55:23;;;;;;;3.63;1.73;;;-3.70;99.90;;;;;;4975891;28;20038;-78
2024/01/29 03:57:49;;;;;;;3.65;2.03;;;-3.70;99.90;;;;;;4959735;28;20088;-78
2024/01/29 04:00:18;;;;;;;3.17;1.70;;;-3.80;99.90;;;;;;4975889;28;20034;-78
2024/01/29 04:02:46;;;;;;;4.35;2.40;;;-3.80;99.90;;;;;;4959991;28;20488;-78
2024/01/29 04:05:12;;;;;;;3.45;1.77;;;-3.80;99.90;;;;;;4975470;28;20053;-78
2024/01/29 04:07:39;;;;;;;4.18;1.88;;;-3.80;99.90;;;;;;4959441;28;20034;-78
2024/01/29 04:10:05;;;;;;;4.70;2.10;;;-3.80;99.90;;;;;;4992912;28;20022;-78
2024/01/29 04:12:31;;;;;;;4.35;2.30;;;-3.80;99.90;;;;;;4975523;28;20373;-78
2024/01/29 04:14:56;;;;;;;5.25;2.35;;;-3.90;99.90;;;;;;4992924;28;20033;-78
2024/01/29 04:17:22;;;;;;;3.65;1.70;;;-3.90;99.90;;;;;;4975486;28;20480;-78
2024/01/29 04:19:48;;;;;;;4.20;1.83;;;-3.90;99.90;;;;;;4975545;28;20071;-78
2024/01/29 04:22:13;;;;;;;4.22;1.90;;;-3.90;99.90;;;;;;4975408;28;20099;-78
2024/01/29 04:24:39;;;;;;;3.65;2.00;;;-3.90;99.90;;;;;;4975219;28;20072;-78
2024/01/29 04:27:05;;;;;;;2.50;1.85;;;-3.90;99.90;;;;;;4992733;28;20031;-78
2024/01/29 04:29:31;;;;;;;3.92;1.98;;;-4.00;99.90;;;;;;4975902;28;20058;-78
2024/01/29 04:31:57;;;;;;;2.85;1.65;;;-3.90;99.90;;;;;;4992945;28;20022;-78
2024/01/29 04:34:22;;;;;;;3.20;1.90;;;-3.90;99.90;;;;;;4992690;28;20037;-78
2024/01/29 04:36:48;;;;;;;4.22;2.00;;;-3.90;99.90;;;;;;4975057;28;20037;-78
2024/01/29 04:39:14;;;;;;;3.63;2.00;;;-3.90;99.90;;;;;;4975785;28;20034;-78
2024/01/29 04:41:40;;;;;;;5.15;2.15;;;-3.90;99.90;;;;;;4992491;28;20034;-78
2024/01/29 04:44:06;;;;;;;3.67;2.15;;;-3.90;99.90;;;;;;4975681;28;20042;-79
2024/01/29 04:46:32;;;;;;;3.67;2.00;;;-3.90;99.90;;;;;;4959518;28;20155;-78
2024/01/29 04:48:57;;;;;;;4.60;2.03;;;-3.90;99.90;;;;;;4943107;28;20063;-79
2024/01/29 04:51:23;;;;;;;3.78;1.90;;;-3.90;99.90;;;;;;4959136;28;20438;-78
2024/01/29 04:53:49;;;;;;;3.22;2.03;;;-3.90;99.90;;;;;;4975096;28;20030;-78
2024/01/29 04:56:14;;;;;;;6.47;1.92;;;-3.90;99.90;;;;;;4974835;28;20496;-78
2024/01/29 04:58:40;;;;;;;5.22;2.20;;;-4.00;99.90;;;;;;4958656;28;20027;-78
2024/01/29 05:01:06;;;;;;;3.50;2.13;;;-4.10;99.90;;;;;;4958477;28;20125;-78
2024/01/29 05:03:32;;;;;;;4.20;2.10;;;-4.20;99.90;;;;;;4974087;28;20049;-78
2024/01/29 05:05:57;;;;;;;3.92;1.83;;;-4.20;99.90;;;;;;4991933;28;20043;-78
2024/01/29 05:08:23;;;;;;;4.07;2.05;;;-4.10;99.90;;;;;;4992075;28;20180;-78
2024/01/29 05:10:49;;;;;;;3.63;1.83;;;-4.10;99.90;;;;;;4974924;28;20031;-78
2024/01/29 05:13:15;;;;;;;4.90;1.83;;;-4.10;99.90;;;;;;4974854;28;20030;-78
2024/01/29 05:15:41;;;;;;;3.92;2.03;;;-4.10;99.90;;;;;;4974740;28;20030;-78
2024/01/29 05:18:07;;;;;;;2.90;1.75;;;-4.10;99.90;;;;;;4974371;28;20553;-78
2024/01/29 05:20:33;;;;;;;2.85;1.70;;;-4.10;99.90;;;;;;4974534;28;20113;-78
2024/01/29 05:22:58;;;;;;;3.30;1.77;;;-4.00;99.90;;;;;;4975053;28;20166;-78
2024/01/29 05:25:24;;;;;;;15.07;8.95;;;-4.00;99.90;;;;;;4992017;28;20064;-78
2024/01/29 05:27:50;;;;;;;11.35;6.40;;;-4.00;99.90;;;;;;4991952;28;20032;-78
2024/01/29 05:30:16;;;;;;;12.30;6.82;;;-4.10;99.90;;;;;;4974534;28;20058;-78
2024/01/29 05:32:42;;;;;;;10.05;6.15;;;-4.10;99.90;;;;;;4991662;28;20093;-78
2024/01/29 05:35:09;;;;;;;6.55;3.45;;;-4.10;99.90;;;;;;4992321;28;20447;-78
2024/01/29 05:37:35;;;;;;;4.93;3.03;;;-4.20;99.90;;;;;;4974481;28;20056;-78
2024/01/29 05:40:01;;;;;;;4.20;2.28;;;-4.20;99.90;;;;;;4974043;28;20045;-78
2024/01/29 05:42:27;;;;;;;3.80;2.17;;;-4.20;99.90;;;;;;4974486;28;20056;-78
2024/01/29 05:44:52;;;;;;;3.85;2.33;;;-4.10;99.90;;;;;;4991912;28;20047;-78
2024/01/29 05:47:18;;;;;;;4.82;2.08;;;-4.10;99.90;;;;;;4991513;28;20101;-78
2024/01/29 05:49:44;;;;;;;5.05;2.47;;;-4.10;99.90;;;;;;4992048;28;20022;-80
2024/01/29 05:52:10;;;;;;;5.97;2.65;;;-4.10;99.90;;;;;;4975170;28;20056;-80
2024/01/29 05:54:36;;;;;;;5.18;2.50;;;-4.10;99.90;;;;;;4976438;28;20034;-80
2024/01/29 05:57:02;;;;;;;3.63;2.20;;;-4.10;99.90;;;;;;4959590;28;20111;-80
2024/01/29 05:59:27;;;;;;;3.95;2.28;;;-4.10;99.90;;;;;;4994062;28;20037;-80
2024/01/29 06:01:53;;;;;;;5.20;3.00;;;-4.10;99.90;;;;;;4993977;28;20033;-80
2024/01/29 06:04:19;;;;;;;6.03;2.60;;;-4.10;99.90;;;;;;4975866;28;20125;-80
2024/01/29 06:06:44;;;;;;;9.93;4.95;;;-4.10;99.90;;;;;;4976123;28;20404;-80
2024/01/29 06:09:10;;;;;;;11.32;4.93;;;-4.20;99.90;;;;;;4993935;28;20484;-80
2024/01/29 06:11:36;;;;;;;7.85;3.58;;;-4.20;99.90;;;;;;4959689;28;20058;-80
2024/01/29 06:14:02;;;;;;;11.35;3.55;;;-4.20;99.90;;;;;;4977649;28;20060;-80
2024/01/29 06:16:28;;;;;;;28.75;11.93;;;-4.20;99.90;;;;;;4996734;28;20102;-80
2024/01/29 06:18:55;;;;;;;19.20;9.07;;;-4.30;99.90;;;;;;4979222;28;20026;-80
2024/01/29 06:21:21;;;;;;;16.77;7.50;;;-4.40;99.90;;;;;;4996779;28;20048;-80
2024/01/29 06:23:48;;;;;;;13.18;7.28;;;-4.40;99.90;;;;;;4996554;28;20018;-80
2024/01/29 06:26:14;;;;;;;13.73;7.15;;;-4.40;99.90;;;;;;4979088;28;20031;-80
2024/01/29 06:28:42;;;;;;;11.63;5.05;;;-4.40;99.90;;;;;;4996426;28;20038;-80
2024/01/29 06:31:08;;;;;;;6.68;3.83;;;-4.40;99.90;;;;;;4996475;28;20019;-80
2024/01/29 06:33:38;;;;;;;5.32;2.70;;;-4.40;99.90;;;;;;4996526;28;20480;-80
2024/01/29 06:36:05;;;;;;;5.75;3.05;;;-4.40;99.90;;;;;;4996140;28;20430;-80
2024/01/29 06:38:30;;;;;;;9.02;4.18;;;-4.30;99.90;;;;;;4996604;28;20045;-80
2024/01/29 06:40:58;;;;;;;8.73;4.20;;;-4.30;99.90;;;;;;4996432;28;20026;-80
2024/01/29 06:43:24;;;;;;;11.35;5.65;;;-4.30;99.90;;;;;;4996902;28;20022;-80
2024/01/29 06:45:50;;;;;;;17.73;7.88;;;-4.20;99.90;;;;;;4946980;28;20560;-80
2024/01/29 06:48:15;;;;;;;18.98;7.88;;;-4.30;99.90;;;;;;4979053;28;20034;-80
2024/01/29 06:50:41;;;;;;;19.05;8.10;;;-4.30;99.90;;;;;;4978979;28;20023;-80
2024/01/29 06:53:07;;;;;;;18.63;6.82;;;-4.40;99.90;;;;;;4946974;28;20030;-80
2024/01/29 06:55:32;;;;;;;9.65;5.50;;;-4.40;99.90;;;;;;4997118;28;20109;-80
2024/01/29 06:57:58;;;;;;;7.15;4.00;;;-4.40;99.90;;;;;;4963051;28;20499;-80
2024/01/29 07:00:24;;;;;;;6.70;3.90;;;-4.30;99.90;;;;;;4962780;28;20041;-80
2024/01/29 07:02:49;;;;;;;6.00;3.40;;;-4.30;99.90;;;;;;4962799;28;20065;-80
2024/01/29 07:05:16;;;;;;;6.55;3.47;;;-4.40;99.90;;;;;;4978613;28;20037;-80
2024/01/29 07:07:42;;;;;;;6.78;3.15;;;-4.30;99.90;;;;;;4978879;28;20032;-80
2024/01/29 07:10:08;;;;;;;7.85;3.13;;;-4.30;99.90;;;;;;4962942;28;20441;-80
2024/01/29 07:12:33;;;;;;;6.53;3.60;;;-4.30;99.90;;;;;;4978661;28;20553;-80
2024/01/29 07:14:59;;;;;;;6.78;3.42;;;-4.30;99.90;;;;;;4962524;28;20426;-80
2024/01/29 07:17:24;;;;;;;6.55;3.45;;;-4.20;99.90;;;;;;4978669;28;20523;-80
2024/01/29 07:19:52;;;;;;;9.02;3.38;;;-4.30;99.90;;;;;;4995802;28;20452;-80
2024/01/29 07:22:19;;;;;;;4.80;2.95;;;-4.30;99.90;;;;;;4978868;28;20088;-80
2024/01/29 07:24:48;;;;;;;6.38;3.42;;;-4.20;99.90;;;;;;4994637;28;20437;-80
2024/01/29 07:27:15;;;;;;;4.97;2.60;;;-4.20;99.90;;;;;;4995249;28;20030;-80
2024/01/29 07:29:41;;;;;;;6.25;2.75;;;-4.20;99.90;;;;;;4995154;28;20098;-80
2024/01/29 07:32:07;;;;;;;4.68;3.08;;;-4.20;99.90;;;;;;4978100;28;20493;-80
2024/01/29 07:34:32;;;;;;;5.53;3.58;;;-4.10;99.90;;;;;;4996458;28;20041;-80
2024/01/29 07:36:59;;;;;;;5.55;3.25;;;-4.10;99.90;;;;;;4962479;28;20166;-80
2024/01/29 07:39:25;;;;;;;5.63;3.20;;;-4.00;99.90;;;;;;4995815;28;20026;-80
2024/01/29 07:41:51;;;;;;;5.78;3.40;;;-4.00;99.90;;;;;;4995618;28;20022;-80
2024/01/29 07:44:17;;;;;;;13.38;7.88;;;-4.00;99.90;;;;;;4977835;28;20061;-80
2024/01/29 07:46:43;;;;;;;12.85;6.50;;;-3.90;99.90;;;;;;4995510;28;20111;-80
2024/01/29 07:49:09;;;;;;;9.13;5.32;;;-3.90;99.90;;;;;;4977780;28;20033;-80
2024/01/29 07:51:35;;;;;;;8.15;5.35;;;-3.90;99.90;;;;;;4962550;28;20075;-80
2024/01/29 07:54:00;;;;;;;10.18;4.70;;;-3.80;99.90;;;;;;4961750;28;20426;-80
2024/01/29 07:56:26;;;;;;;10.00;5.55;;;-3.80;99.90;;;;;;4977724;28;20041;-80
2024/01/29 07:58:52;;;;;;;16.33;8.32;;;-3.70;99.90;;;;;;4977587;28;20488;-80
2024/01/29 08:01:17;;;;;;;10.63;5.72;;;-3.70;99.90;;;;;;4995326;28;20026;-80
2024/01/29 08:03:43;;;;;;;9.27;4.57;;;-3.70;99.90;;;;;;4961917;28;20030;-80
2024/01/29 08:06:09;;;;;;;23.98;11.07;;;-3.70;99.90;;;;;;4977391;28;20063;-80
2024/01/29 08:08:36;;;;;;;14.63;5.35;;;-3.60;99.90;;;;;;4994856;28;20048;-80
2024/01/29 08:11:02;;;;;;;21.38;8.93;;;-3.60;99.90;;;;;;4994902;28;20059;-80
2024/01/29 08:13:28;;;;;;;11.05;4.82;;;-3.60;99.90;;;;;;4994967;28;20033;-80
2024/01/29 08:15:54;;;;;;;6.70;3.95;;;-3.50;99.90;;;;;;4994168;28;20027;-80
2024/01/29 08:18:20;;;;;;;6.50;3.42;;;-3.50;99.90;;;;;;4995019;28;20087;-80
2024/01/29 08:20:46;;;;;;;6.75;3.78;;;-3.40;99.90;;;;;;4994714;28;20034;-80
2024/01/29 08:23:12;;;;;;;7.93;5.68;;;-3.40;99.90;;;;;;4977121;28;20041;-80
2024/01/29 08:25:38;;;;;;;13.38;7.40;;;-3.30;99.90;;;;;;4977331;28;20101;-80
2024/01/29 08:28:04;;;;;;;9.95;5.60;;;-3.20;99.90;;;;;;4961036;28;20033;-80
2024/01/29 08:30:30;;;;;;;15.27;8.00;;;-3.10;99.90;;;;;;4994748;28;20041;-80
2024/01/29 08:32:55;;;;;;;11.13;6.90;;;-3.00;99.90;;;;;;4994343;28;20383;-80
2024/01/29 08:35:21;;;;;;;9.23;5.40;;;-2.90;99.90;;;;;;4994118;28;20076;-80
2024/01/29 08:37:47;;;;;;;19.02;8.90;;;-2.90;99.90;;;;;;4976636;28;20031;-80
2024/01/29 08:40:13;;;;;;;19.92;10.85;;;-2.80;99.90;;;;;;4980860;28;20112;-80
2024/01/29 08:42:38;;;;;;;12.25;6.97;;;-2.70;99.90;;;;;;4998573;28;20065;-81
2024/01/29 08:45:05;;;;;;;10.20;5.72;;;-2.70;99.90;;;;;;4980894;28;20058;-80
2024/01/29 08:47:30;;;;;;;9.80;4.95;;;-2.60;99.90;;;;;;4998020;28;20037;-80
2024/01/29 08:49:56;;;;;;;9.07;4.68;;;-2.50;99.90;;;;;;4964351;28;20034;-80
2024/01/29 08:52:22;;;;;;;7.47;4.20;;;-2.40;99.90;;;;;;4963400;28;20030;-80
2024/01/29 08:54:48;;;;;;;7.13;3.55;;;-2.30;99.90;;;;;;4997239;28;20034;-80
2024/01/29 08:57:14;;;;;;;8.20;4.03;;;-2.30;99.90;;;;;;4979740;28;20083;-80
2024/01/29 08:59:41;;;;;;;7.97;4.40;;;-2.20;99.90;;;;;;4996906;28;20034;-80
2024/01/29 09:02:07;;;;;;;14.43;5.45;;;-2.10;99.90;;;;;;4980127;28;20026;-80
2024/01/29 09:04:33;;;;;;;13.85;5.20;;;-2.00;99.90;;;;;;4963513;28;20441;-81
2024/01/29 09:06:59;;;;;;;14.43;5.30;;;-1.90;99.90;;;;;;4996621;28;20030;-80
2024/01/29 09:09:24;;;;;;;9.02;4.65;;;-1.80;99.90;;;;;;4979010;28;20152;-81
2024/01/29 09:11:51;;;;;;;11.30;4.75;;;-1.70;99.90;;;;;;4995988;28;20031;-80
2024/01/29 09:14:18;;;;;;;7.75;3.80;;;-1.60;99.90;;;;;;4996043;28;20025;-81
2024/01/29 09:16:44;;;;;;;10.32;4.03;;;-1.50;99.90;;;;;;4963052;28;20026;-81
2024/01/29 09:19:10;;;;;;;7.55;4.38;;;-1.40;99.90;;;;;;4995807;28;20034;-80
2024/01/29 09:21:36;;;;;;;7.43;3.67;;;-1.30;99.90;;;;;;4962758;28;20061;-80
2024/01/29 09:24:03;;;;;;;8.07;3.63;;;-1.20;99.90;;;;;;4962686;28;20484;-80
2024/01/29 09:26:29;;;;;;;6.65;3.60;;;-1.10;99.90;;;;;;4978045;28;20035;-80
2024/01/29 09:28:54;;;;;;;7.28;4.03;;;-1.10;99.90;;;;;;4995243;28;20026;-80
2024/01/29 09:31:20;;;;;;;6.65;3.40;;;-1.00;99.90;;;;;;4977982;28;20030;-80
2024/01/29 09:33:46;;;;;;;5.43;3.55;;;-0.80;99.90;;;;;;4962421;28;20031;-81
2024/01/29 09:36:11;;;;;;;6.53;2.63;;;-0.80;99.90;;;;;;4994585;28;20077;-80
2024/01/29 09:38:37;;;;;;;5.35;2.85;;;-0.70;99.90;;;;;;4976103;28;20039;-80
2024/01/29 09:41:06;;;;;;;9.70;3.97;;;-0.60;99.90;;;;;;4993015;28;20035;-80
2024/01/29 09:43:35;;;;;;;7.78;3.13;;;-0.50;99.90;;;;;;4975595;28;20451;-80
2024/01/29 09:46:04;;;;;;;6.57;3.30;;;-0.30;99.90;;;;;;4992993;28;20027;-80
2024/01/29 09:48:32;;;;;;;7.55;2.55;;;-0.20;99.90;;;;;;4992475;28;20037;-80
2024/01/29 09:51:00;;;;;;;10.60;4.15;;;-0.10;99.90;;;;;;4993462;28;20079;-81
2024/01/29 09:53:27;;;;;;;9.98;4.47;;;0.00;99.90;;;;;;4993067;28;20033;-80
2024/01/29 09:55:52;;;;;;;11.50;4.72;;;0.20;99.90;;;;;;4992888;28;20030;-81
2024/01/29 09:58:19;;;;;;;8.07;3.88;;;0.30;99.90;;;;;;4993132;28;20083;-80
2024/01/29 10:00:45;;;;;;;11.25;3.38;;;0.40;99.90;;;;;;4959637;28;20061;-80
2024/01/29 10:03:20;;;;;;;6.38;3.08;;;0.40;99.90;;;;;;4976183;28;20035;-80
2024/01/29 10:05:47;;;;;;;9.90;3.13;;;0.50;99.90;;;;;;4992575;28;20041;-80
2024/01/29 10:08:14;;;;;;;5.18;3.10;;;0.60;99.90;;;;;;4992900;28;20476;-80
2024/01/29 10:10:40;;;;;;;6.25;3.08;;;0.80;99.90;;;;;;4975128;28;20058;-80
2024/01/29 10:13:07;;;;;;;6.15;2.60;;;0.80;99.90;;;;;;4973802;28;20103;-80
2024/01/29 10:15:33;;;;;;;4.07;2.13;;;1.00;99.90;;;;;;4990994;28;20023;-80
2024/01/29 10:17:59;;;;;;;7.07;2.53;;;1.10;99.90;;;;;;4990961;28;20027;-80
2024/01/29 10:20:25;;;;;;;5.25;2.67;;;1.20;99.90;;;;;;4974437;28;20425;-80
2024/01/29 10:23:01;;;;;;;4.90;2.30;;;1.30;99.90;;;;;;4973801;28;20027;-80
2024/01/29 10:25:34;;;;;;;3.17;1.60;;;1.40;99.90;;;;;;4991336;28;20026;-80
2024/01/29 10:28:09;;;;;;;5.18;1.98;;;1.50;99.90;;;;;;4991061;28;20458;-80
2024/01/29 10:30:35;;;;;;;3.80;1.90;;;1.60;99.90;;;;;;4991460;28;20026;-80
2024/01/29 10:33:01;;;;;;;3.20;1.52;;;1.70;99.90;;;;;;4991143;28;20030;-80
2024/01/29 10:35:26;;;;;;;2.97;1.77;;;1.80;99.90;;;;;;4973976;28;20037;-80
2024/01/29 10:38:00;;;;;;;5.97;1.83;;;1.80;99.90;;;;;;4991113;28;20030;-80
2024/01/29 10:40:26;;;;;;;7.88;1.95;;;1.90;99.90;;;;;;4991077;28;20106;-80
2024/01/29 10:42:54;;;;;;;4.05;2.00;;;2.00;99.90;;;;;;4973942;28;20027;-80
2024/01/29 10:45:20;;;;;;;4.40;1.98;;;2.20;99.90;;;;;;4974030;28;20247;-80
2024/01/29 10:47:53;;;;;;;4.00;1.65;;;2.30;99.90;;;;;;4991007;28;20023;-80
2024/01/29 10:50:20;;;;;;;5.47;1.85;;;2.40;99.90;;;;;;4974175;28;20075;-80
2024/01/29 10:52:47;;;;;;;10.02;2.08;;;2.50;99.90;;;;;;4991325;28;20019;-80
2024/01/29 10:55:16;;;;;;;2.85;1.42;;;2.60;99.90;;;;;;4991360;28;20543;-80
2024/01/29 10:57:47;;;;;;;3.08;1.60;;;2.70;99.90;;;;;;4973749;28;20034;-80
2024/01/29 11:00:17;;;;;;;4.93;1.97;;;2.80;99.90;;;;;;4974461;28;20030;-80
2024/01/29 11:02:44;;;;;;;2.30;1.20;;;2.90;99.90;;;;;;4994547;28;20026;-80
2024/01/29 11:05:12;;;;;;;3.10;1.48;;;2.90;99.90;;;;;;4977009;28;20060;-80
2024/01/29 11:07:41;;;;;;;7.30;3.03;;;3.00;99.90;;;;;;4994435;28;20088;-81
2024/01/29 11:10:21;;;;;;;5.35;2.90;;;3.20;99.90;;;;;;4977680;28;20058;-81
2024/01/29 11:12:49;;;;;;;4.43;2.05;;;3.30;99.90;;;;;;4994719;28;20031;-81
2024/01/29 11:15:15;;;;;;;2.90;1.55;;;3.30;99.90;;;;;;4994698;28;20019;-81
2024/01/29 11:17:42;;;;;;;5.57;1.35;;;3.50;99.90;;;;;;4994580;28;20025;-81
2024/01/29 11:20:16;;;;;;;3.72;1.33;;;3.50;99.90;;;;;;4994832;28;20062;-81
2024/01/29 11:22:52;;;;;;;5.00;1.83;;;3.70;99.90;;;;;;4994214;28;20022;-81
2024/01/29 11:25:18;;;;;;;6.97;2.45;;;3.70;99.90;;;;;;4977506;28;20027;-80
2024/01/29 11:27:46;;;;;;;5.22;2.17;;;3.80;99.90;;;;;;4976826;28;20050;-81
2024/01/29 11:30:20;;;;;;;2.47;1.10;;;3.90;99.90;;;;;;4994185;28;20056;-81
2024/01/29 11:32:47;;;;;;;4.68;1.58;;;4.00;99.90;;;;;;4976984;28;20404;-81
2024/01/29 11:35:19;;;;;;;3.47;1.80;;;4.10;99.90;;;;;;4977796;28;20030;-81
2024/01/29 11:37:48;;;;;;;2.15;1.10;;;4.20;99.90;;;;;;4977567;28;20396;-80
2024/01/29 11:40:33;;;;;;;1.52;0.70;;;4.20;99.90;;;;;;4977517;28;20034;-81
2024/01/29 11:43:08;;;;;;;2.60;1.40;;;4.30;99.90;;;;;;4976643;28;20488;-81
2024/01/29 11:45:36;;;;;;;3.03;1.77;;;4.30;99.90;;;;;;4994283;28;20026;-81
2024/01/29 11:48:02;;;;;;;3.65;1.75;;;4.40;99.90;;;;;;4976454;28;20022;-81
2024/01/29 11:50:28;;;;;;;4.10;2.00;;;4.50;99.90;;;;;;4976990;28;20383;-81
2024/01/29 11:52:54;;;;;;;5.32;2.80;;;4.50;99.90;;;;;;4961267;28;20122;-81
2024/01/29 11:55:22;;;;;;;3.92;2.42;;;4.60;99.90;;;;;;4977107;28;20504;-81
2024/01/29 11:57:52;;;;;;;5.18;2.40;;;4.60;99.90;;;;;;4976968;28;20038;-81
2024/01/29 12:00:19;;;;;;;2.65;1.60;;;4.70;99.90;;;;;;4994637;28;20045;-81
2024/01/29 12:02:48;;;;;;;2.15;1.30;;;4.80;99.90;;;;;;4961333;28;20041;-81
2024/01/29 12:05:18;;;;;;;2.63;1.48;;;4.90;99.90;;;;;;4976957;28;20034;-81
2024/01/29 12:07:51;;;;;;;3.22;1.70;;;5.00;99.90;;;;;;4977177;28;20484;-80
2024/01/29 12:10:17;;;;;;;5.00;1.50;;;5.10;99.90;;;;;;4976853;28;20026;-81
2024/01/29 12:12:44;;;;;;;3.53;1.55;;;5.10;99.90;;;;;;4993679;28;20113;-81
2024/01/29 12:15:11;;;;;;;2.95;1.60;;;5.20;99.90;;;;;;4961177;28;20076;-81
2024/01/29 12:17:40;;;;;;;5.95;2.45;;;5.30;99.90;;;;;;4994218;28;20029;-81
2024/01/29 12:20:08;;;;;;;5.47;2.95;;;5.50;99.90;;;;;;4977098;28;20484;-81
2024/01/29 12:22:34;;;;;;;6.15;2.75;;;5.60;99.90;;;;;;4976791;28;20031;-81
2024/01/29 12:25:00;;;;;;;6.28;3.30;;;5.70;99.90;;;;;;4994123;28;20030;-81
2024/01/29 12:27:25;;;;;;;6.18;2.90;;;5.80;99.90;;;;;;4976825;28;20053;-81
2024/01/29 12:29:52;;;;;;;7.60;2.90;;;5.90;99.90;;;;;;4977075;28;20030;-81
2024/01/29 12:32:20;;;;;;;5.03;2.65;;;6.10;99.90;;;;;;4976897;28;20499;-81
2024/01/29 12:34:47;;;;;;;3.67;2.22;;;6.20;99.90;;;;;;4977109;28;20053;-81
2024/01/29 12:37:23;;;;;;;4.80;1.73;;;6.30;99.90;;;;;;4961143;28;20030;-81
2024/01/29 12:39:51;;;;;;;3.58;1.80;;;6.40;99.90;;;;;;4961820;28;20488;-81
2024/01/29 12:42:17;;;;;;;3.10;1.50;;;6.40;99.90;;;;;;4960651;28;20030;-81
2024/01/29 12:44:42;;;;;;;3.88;1.77;;;6.50;99.90;;;;;;4993933;28;20031;-81